sensor_id;sensor_type;location;lat;lon;timestamp;pressure;altitude;pressure_sealevel;temperature;humidity
66486;BME280;53303;47.476;8.084;2023-10-31T00:01:51;94039.53;;;19.13;55.10
66486;BME280;53303;47.476;8.084;2023-10-31T00:04:16;94041.25;;;19.16;55.37
66486;BME280;53303;47.476;8.084;2023-10-31T00:06:42;94042.50;;;19.15;55.21
66486;BME280;53303;47.476;8.084;2023-10-31T00:09:07;94037.84;;;19.10;55.38
66486;BME280;53303;47.476;8.084;2023-10-31T00:11:33;94037.31;;;19.12;55.35
66486;BME280;53303;47.476;8.084;2023-10-31T00:13:59;94039.75;;;19.15;55.48
66486;BME280;53303;47.476;8.084;2023-10-31T00:16:26;94035.81;;;19.11;55.45
66486;BME280;53303;47.476;8.084;2023-10-31T00:18:52;94025.31;;;19.09;55.36
66486;BME280;53303;47.476;8.084;2023-10-31T00:21:18;94030.28;;;19.11;55.61
66486;BME280;53303;47.476;8.084;2023-10-31T00:23:48;94029.34;;;19.08;55.36
66486;BME280;53303;47.476;8.084;2023-10-31T00:26:16;94045.59;;;19.12;55.31
66486;BME280;53303;47.476;8.084;2023-10-31T00:28:41;94041.00;;;19.14;55.46
66486;BME280;53303;47.476;8.084;2023-10-31T00:31:07;94050.06;;;19.15;55.43
66486;BME280;53303;47.476;8.084;2023-10-31T00:33:34;94033.03;;;19.11;55.31
66486;BME280;53303;47.476;8.084;2023-10-31T00:36:00;94043.38;;;19.10;55.46
66486;BME280;53303;47.476;8.084;2023-10-31T00:38:25;94038.56;;;19.11;55.57
66486;BME280;53303;47.476;8.084;2023-10-31T00:40:50;94039.53;;;19.13;55.68
66486;BME280;53303;47.476;8.084;2023-10-31T00:43:16;94037.50;;;19.14;55.71
66486;BME280;53303;47.476;8.084;2023-10-31T00:45:44;94035.81;;;19.11;55.72
66486;BME280;53303;47.476;8.084;2023-10-31T00:48:10;94028.59;;;19.08;55.41
66486;BME280;53303;47.476;8.084;2023-10-31T00:50:35;94040.28;;;19.14;55.59
66486;BME280;53303;47.476;8.084;2023-10-31T00:53:01;94051.88;;;19.12;55.81
66486;BME280;53303;47.476;8.084;2023-10-31T00:55:26;94053.38;;;19.13;55.78
66486;BME280;53303;47.476;8.084;2023-10-31T00:57:52;94047.31;;;19.15;55.62
66486;BME280;53303;47.476;8.084;2023-10-31T01:00:18;94057.19;;;19.10;55.59
66486;BME280;53303;47.476;8.084;2023-10-31T01:02:43;94066.13;;;19.16;55.77
66486;BME280;53303;47.476;8.084;2023-10-31T01:05:10;94061.34;;;19.17;55.64
66486;BME280;53303;47.476;8.084;2023-10-31T01:07:36;94097.28;;;19.17;55.71
66486;BME280;53303;47.476;8.084;2023-10-31T01:10:04;94077.72;;;19.15;55.87
66486;BME280;53303;47.476;8.084;2023-10-31T01:12:30;94085.69;;;19.18;55.71
66486;BME280;53303;47.476;8.084;2023-10-31T01:14:56;94084.41;;;19.19;55.88
66486;BME280;53303;47.476;8.084;2023-10-31T01:17:22;94083.13;;;19.20;55.85
66486;BME280;53303;47.476;8.084;2023-10-31T01:19:47;94076.22;;;19.14;55.80
66486;BME280;53303;47.476;8.084;2023-10-31T01:22:14;94072.50;;;19.11;55.99
66486;BME280;53303;47.476;8.084;2023-10-31T01:24:40;94084.41;;;19.19;55.99
66486;BME280;53303;47.476;8.084;2023-10-31T01:27:05;94082.19;;;19.18;55.81
66486;BME280;53303;47.476;8.084;2023-10-31T01:29:31;94086.09;;;19.23;55.97
66486;BME280;53303;47.476;8.084;2023-10-31T01:31:56;94073.44;;;19.14;55.80
66486;BME280;53303;47.476;8.084;2023-10-31T01:34:22;94080.03;;;19.24;55.81
66486;BME280;53303;47.476;8.084;2023-10-31T01:36:48;94078.34;;;19.21;55.83
66486;BME280;53303;47.476;8.084;2023-10-31T01:39:13;94085.69;;;19.18;55.87
66486;BME280;53303;47.476;8.084;2023-10-31T01:41:43;94091.75;;;19.17;55.99
66486;BME280;53303;47.476;8.084;2023-10-31T01:44:11;94111.72;;;19.23;55.98
66486;BME280;53303;47.476;8.084;2023-10-31T01:46:39;94096.44;;;19.22;55.83
66486;BME280;53303;47.476;8.084;2023-10-31T01:49:05;94121.84;;;19.20;56.04
66486;BME280;53303;47.476;8.084;2023-10-31T01:51:30;94113.22;;;19.24;55.99
66486;BME280;53303;47.476;8.084;2023-10-31T01:53:56;94129.28;;;19.26;55.99
66486;BME280;53303;47.476;8.084;2023-10-31T01:56:22;94130.44;;;19.30;56.04
66486;BME280;53303;47.476;8.084;2023-10-31T01:58:48;94124.38;;;19.32;55.89
66486;BME280;53303;47.476;8.084;2023-10-31T02:01:14;94138.53;;;19.28;55.96
66486;BME280;53303;47.476;8.084;2023-10-31T02:03:40;94148.00;;;19.33;55.77
66486;BME280;53303;47.476;8.084;2023-10-31T02:06:06;94153.53;;;19.33;55.77
66486;BME280;53303;47.476;8.084;2023-10-31T02:08:33;94161.09;;;19.32;55.87
66486;BME280;53303;47.476;8.084;2023-10-31T02:10:59;94170.88;;;19.33;55.88
66486;BME280;53303;47.476;8.084;2023-10-31T02:13:25;94168.63;;;19.32;55.97
66486;BME280;53303;47.476;8.084;2023-10-31T02:15:50;94171.91;;;19.30;55.65
66486;BME280;53303;47.476;8.084;2023-10-31T02:18:16;94166.38;;;19.30;56.02
66486;BME280;53303;47.476;8.084;2023-10-31T02:20:44;94168.63;;;19.32;56.07
66486;BME280;53303;47.476;8.084;2023-10-31T02:23:11;94175.34;;;19.36;56.25
66486;BME280;53303;47.476;8.084;2023-10-31T02:25:39;94176.28;;;19.39;56.08
66486;BME280;53303;47.476;8.084;2023-10-31T02:28:07;94187.88;;;19.37;55.85
66486;BME280;53303;47.476;8.084;2023-10-31T02:30:34;94190.88;;;19.39;55.72
66486;BME280;53303;47.476;8.084;2023-10-31T02:33:01;94188.63;;;19.38;55.97
66486;BME280;53303;47.476;8.084;2023-10-31T02:35:26;94201.94;;;19.39;55.88
66486;BME280;53303;47.476;8.084;2023-10-31T02:37:52;94205.44;;;19.40;55.71
66486;BME280;53303;47.476;8.084;2023-10-31T02:40:17;94231.81;;;19.41;55.91
66486;BME280;53303;47.476;8.084;2023-10-31T02:42:43;94235.44;;;19.36;55.98
66486;BME280;53303;47.476;8.084;2023-10-31T02:45:09;94235.13;;;19.39;55.74
66486;BME280;53303;47.476;8.084;2023-10-31T02:47:35;94231.59;;;19.39;56.06
66486;BME280;53303;47.476;8.084;2023-10-31T02:50:00;94229.03;;;19.41;55.77
66486;BME280;53303;47.476;8.084;2023-10-31T02:52:25;94241.09;;;19.44;55.74
66486;BME280;53303;47.476;8.084;2023-10-31T02:54:51;94241.81;;;19.44;55.91
66486;BME280;53303;47.476;8.084;2023-10-31T02:57:19;94231.38;;;19.37;55.72
66486;BME280;53303;47.476;8.084;2023-10-31T02:59:44;94237.03;;;19.45;56.00
66486;BME280;53303;47.476;8.084;2023-10-31T03:02:09;94239.06;;;19.44;55.80
66486;BME280;53303;47.476;8.084;2023-10-31T03:04:36;94234.81;;;19.43;55.75
66486;BME280;53303;47.476;8.084;2023-10-31T03:07:02;94244.78;;;19.46;55.79
66486;BME280;53303;47.476;8.084;2023-10-31T03:09:27;94241.50;;;19.48;55.84
66486;BME280;53303;47.476;8.084;2023-10-31T03:11:52;94238.72;;;19.48;56.42
66486;BME280;53303;47.476;8.084;2023-10-31T03:14:18;94228.50;;;19.43;55.94
66486;BME280;53303;47.476;8.084;2023-10-31T03:16:43;94226.84;;;19.39;55.90
66486;BME280;53303;47.476;8.084;2023-10-31T03:19:09;94240.03;;;19.47;55.67
66486;BME280;53303;47.476;8.084;2023-10-31T03:21:36;94226.72;;;19.45;55.68
66486;BME280;53303;47.476;8.084;2023-10-31T03:24:02;94237.47;;;19.49;55.81
66486;BME280;53303;47.476;8.084;2023-10-31T03:26:27;94237.16;;;19.52;55.74
66486;BME280;53303;47.476;8.084;2023-10-31T03:28:53;94235.66;;;19.51;55.63
66486;BME280;53303;47.476;8.084;2023-10-31T03:31:23;94229.38;;;19.51;55.80
66486;BME280;53303;47.476;8.084;2023-10-31T03:33:48;94235.13;;;19.53;55.75
66486;BME280;53303;47.476;8.084;2023-10-31T03:36:16;94235.66;;;19.51;55.88
66486;BME280;53303;47.476;8.084;2023-10-31T03:38:41;94223.97;;;19.45;55.57
66486;BME280;53303;47.476;8.084;2023-10-31T03:41:07;94229.69;;;19.47;55.57
66486;BME280;53303;47.476;8.084;2023-10-31T03:43:33;94231.94;;;19.49;55.65
66486;BME280;53303;47.476;8.084;2023-10-31T03:46:02;94221.94;;;19.46;55.65
66486;BME280;53303;47.476;8.084;2023-10-31T03:48:27;94223.75;;;19.43;55.61
66486;BME280;53303;47.476;8.084;2023-10-31T03:50:53;94246.41;;;19.55;55.80
66486;BME280;53303;47.476;8.084;2023-10-31T03:53:18;94249.16;;;19.55;55.63
66486;BME280;53303;47.476;8.084;2023-10-31T03:55:44;94250.25;;;19.52;55.73
66486;BME280;53303;47.476;8.084;2023-10-31T03:58:09;94244.47;;;19.50;55.85
66486;BME280;53303;47.476;8.084;2023-10-31T04:00:35;94257.47;;;19.55;55.71
66486;BME280;53303;47.476;8.084;2023-10-31T04:03:01;94257.03;;;19.51;55.56
66486;BME280;53303;47.476;8.084;2023-10-31T04:05:26;94232.47;;;19.47;55.77
66486;BME280;53303;47.476;8.084;2023-10-31T04:07:56;94248.94;;;19.53;55.66
66486;BME280;53303;47.476;8.084;2023-10-31T04:10:24;94237.47;;;19.49;55.69
66486;BME280;53303;47.476;8.084;2023-10-31T04:12:52;94248.84;;;19.58;55.65
66486;BME280;53303;47.476;8.084;2023-10-31T04:15:20;94235.13;;;19.53;55.86
66486;BME280;53303;47.476;8.084;2023-10-31T04:17:45;94243.41;;;19.53;55.68
66486;BME280;53303;47.476;8.084;2023-10-31T04:20:11;94246.19;;;19.53;55.68
66486;BME280;53303;47.476;8.084;2023-10-31T04:22:36;94257.16;;;19.58;55.59
66486;BME280;53303;47.476;8.084;2023-10-31T04:25:03;94258.66;;;19.59;55.57
66486;BME280;53303;47.476;8.084;2023-10-31T04:27:28;94243.09;;;19.56;55.63
66486;BME280;53303;47.476;8.084;2023-10-31T04:29:53;94253.75;;;19.52;55.76
66486;BME280;53303;47.476;8.084;2023-10-31T04:32:19;94256.72;;;19.54;55.72
66486;BME280;53303;47.476;8.084;2023-10-31T04:34:44;94257.16;;;19.58;55.63
66486;BME280;53303;47.476;8.084;2023-10-31T04:37:12;94261.72;;;19.56;55.66
66486;BME280;53303;47.476;8.084;2023-10-31T04:39:37;94265.22;;;19.56;55.63
66486;BME280;53303;47.476;8.084;2023-10-31T04:42:06;94269.72;;;19.59;55.37
66486;BME280;53303;47.476;8.084;2023-10-31T04:44:31;94267.69;;;19.60;55.57
66486;BME280;53303;47.476;8.084;2023-10-31T04:46:57;94267.06;;;19.54;55.35
66486;BME280;53303;47.476;8.084;2023-10-31T04:49:22;94265.03;;;19.54;55.44
66486;BME280;53303;47.476;8.084;2023-10-31T04:51:48;94267.06;;;19.54;55.72
66486;BME280;53303;47.476;8.084;2023-10-31T04:54:13;94277.47;;;19.61;55.53
66486;BME280;53303;47.476;8.084;2023-10-31T04:56:39;94265.75;;;19.55;55.44
66486;BME280;53303;47.476;8.084;2023-10-31T04:59:07;94277.47;;;19.61;55.48
66486;BME280;53303;47.476;8.084;2023-10-31T05:01:32;94265.97;;;19.57;55.44
66486;BME280;53303;47.476;8.084;2023-10-31T05:03:58;94272.28;;;19.57;55.64
66486;BME280;53303;47.476;8.084;2023-10-31T05:06:23;94253.75;;;19.52;55.65
66486;BME280;53303;47.476;8.084;2023-10-31T05:08:49;94268.22;;;19.58;55.62
66486;BME280;53303;47.476;8.084;2023-10-31T05:11:18;94272.69;;;19.62;55.54
66486;BME280;53303;47.476;8.084;2023-10-31T05:13:46;94264.91;;;19.60;55.34
66486;BME280;53303;47.476;8.084;2023-10-31T05:16:11;94257.91;;;19.59;55.45
66486;BME280;53303;47.476;8.084;2023-10-31T05:18:37;94265.88;;;19.63;55.39
66486;BME280;53303;47.476;8.084;2023-10-31T05:21:04;94283.75;;;19.62;55.43
66486;BME280;53303;47.476;8.084;2023-10-31T05:23:30;94269.50;;;19.57;55.39
66486;BME280;53303;47.476;8.084;2023-10-31T05:25:55;94272.06;;;19.55;55.52
66486;BME280;53303;47.476;8.084;2023-10-31T05:28:23;94278.44;;;19.64;55.45
66486;BME280;53303;47.476;8.084;2023-10-31T05:30:51;94257.47;;;19.55;55.35
66486;BME280;53303;47.476;8.084;2023-10-31T05:33:16;94262.69;;;19.58;55.59
66486;BME280;53303;47.476;8.084;2023-10-31T05:35:42;94272.91;;;19.64;55.45
66486;BME280;53303;47.476;8.084;2023-10-31T05:38:10;94268.66;;;19.63;55.39
66486;BME280;53303;47.476;8.084;2023-10-31T05:40:35;94265.97;;;19.57;55.42
66486;BME280;53303;47.476;8.084;2023-10-31T05:43:01;94269.38;;;19.63;55.45
66486;BME280;53303;47.476;8.084;2023-10-31T05:45:28;94270.75;;;19.56;55.39
66486;BME280;53303;47.476;8.084;2023-10-31T05:47:54;94279.06;;;19.56;55.69
66486;BME280;53303;47.476;8.084;2023-10-31T05:50:19;94277.03;;;19.57;55.75
66486;BME280;53303;47.476;8.084;2023-10-31T05:52:44;94287.25;;;19.62;55.56
66486;BME280;53303;47.476;8.084;2023-10-31T05:55:10;94285.56;;;19.59;55.59
66486;BME280;53303;47.476;8.084;2023-10-31T05:57:35;94279.06;;;19.56;55.56
66486;BME280;53303;47.476;8.084;2023-10-31T06:00:01;94291.84;;;19.59;55.67
66486;BME280;53303;47.476;8.084;2023-10-31T06:02:26;94293.78;;;19.65;55.50
66486;BME280;53303;47.476;8.084;2023-10-31T06:04:52;94290.56;;;19.60;55.53
66486;BME280;53303;47.476;8.084;2023-10-31T06:07:17;94300.03;;;19.65;55.55
66486;BME280;53303;47.476;8.084;2023-10-31T06:09:43;94292.59;;;19.60;55.49
66486;BME280;53303;47.476;8.084;2023-10-31T06:12:10;94296.84;;;19.61;55.50
66486;BME280;53303;47.476;8.084;2023-10-31T06:14:38;94290.66;;;19.55;55.73
66486;BME280;53303;47.476;8.084;2023-10-31T06:17:05;94295.13;;;19.58;55.56
66486;BME280;53303;47.476;8.084;2023-10-31T06:19:37;94304.38;;;19.60;55.55
66486;BME280;53303;47.476;8.084;2023-10-31T06:22:03;94306.84;;;19.64;55.67
66486;BME280;53303;47.476;8.084;2023-10-31T06:24:28;94314.41;;;19.64;55.61
66486;BME280;53303;47.476;8.084;2023-10-31T06:26:53;94314.72;;;19.60;55.67
66486;BME280;53303;47.476;8.084;2023-10-31T06:29:19;94326.22;;;19.64;55.64
66486;BME280;53303;47.476;8.084;2023-10-31T06:31:44;94315.78;;;19.57;55.47
66486;BME280;53303;47.476;8.084;2023-10-31T06:34:10;94336.00;;;19.65;55.53
66486;BME280;53303;47.476;8.084;2023-10-31T06:36:37;94331.00;;;19.64;55.53
66486;BME280;53303;47.476;8.084;2023-10-31T06:39:04;94326.75;;;19.63;55.72
66486;BME280;53303;47.476;8.084;2023-10-31T06:41:32;94335.28;;;19.65;55.47
66486;BME280;53303;47.476;8.084;2023-10-31T06:43:58;94330.47;;;19.65;55.53
66486;BME280;53303;47.476;8.084;2023-10-31T06:46:25;94328.75;;;19.62;55.60
66486;BME280;53303;47.476;8.084;2023-10-31T06:48:53;94333.03;;;19.63;55.73
66486;BME280;53303;47.476;8.084;2023-10-31T06:51:18;94336.75;;;19.66;55.45
66486;BME280;53303;47.476;8.084;2023-10-31T06:53:44;94345.59;;;19.64;55.31
66486;BME280;53303;47.476;8.084;2023-10-31T06:56:10;94330.91;;;19.56;55.49
66486;BME280;53303;47.476;8.084;2023-10-31T06:58:35;94342.28;;;19.66;55.47
66486;BME280;53303;47.476;8.084;2023-10-31T07:01:01;94342.41;;;19.60;55.70
66486;BME280;53303;47.476;8.084;2023-10-31T07:03:26;94358.16;;;19.65;55.60
66486;BME280;53303;47.476;8.084;2023-10-31T07:05:54;94361.66;;;19.66;55.51
66486;BME280;53303;47.476;8.084;2023-10-31T07:08:21;94367.19;;;19.66;55.67
66486;BME280;53303;47.476;8.084;2023-10-31T07:10:47;94356.97;;;19.60;55.68
66486;BME280;53303;47.476;8.084;2023-10-31T07:13:17;94365.19;;;19.66;55.46
66486;BME280;53303;47.476;8.084;2023-10-31T07:15:43;94369.44;;;19.67;55.55
66486;BME280;53303;47.476;8.084;2023-10-31T07:18:09;94355.69;;;19.62;55.56
66486;BME280;53303;47.476;8.084;2023-10-31T07:20:34;94364.75;;;19.62;56.02
66486;BME280;53303;47.476;8.084;2023-10-31T07:22:59;94354.31;;;19.55;56.01
66486;BME280;53303;47.476;8.084;2023-10-31T07:25:27;94354.75;;;19.59;56.30
66486;BME280;53303;47.476;8.084;2023-10-31T07:27:53;94367.19;;;19.66;55.69
66486;BME280;53303;47.476;8.084;2023-10-31T07:30:18;94379.25;;;19.68;54.97
66486;BME280;53303;47.476;8.084;2023-10-31T07:32:44;94374.97;;;19.67;54.98
66486;BME280;53303;47.476;8.084;2023-10-31T07:35:10;94370.50;;;19.64;54.64
66486;BME280;53303;47.476;8.084;2023-10-31T07:37:35;94365.25;;;19.60;54.70
66486;BME280;53303;47.476;8.084;2023-10-31T07:40:03;94368.28;;;19.63;54.23
66486;BME280;53303;47.476;8.084;2023-10-31T07:42:33;94374.03;;;19.65;53.88
66486;BME280;53303;47.476;8.084;2023-10-31T07:44:59;94377.94;;;19.69;53.82
66486;BME280;53303;47.476;8.084;2023-10-31T07:47:24;94384.00;;;19.68;53.59
66486;BME280;53303;47.476;8.084;2023-10-31T07:49:50;94382.31;;;19.65;53.07
66486;BME280;53303;47.476;8.084;2023-10-31T07:52:21;94386.25;;;19.69;53.06
66486;BME280;53303;47.476;8.084;2023-10-31T07:54:46;94380.09;;;19.63;52.73
66486;BME280;53303;47.476;8.084;2023-10-31T07:57:11;94378.56;;;19.62;52.47
66486;BME280;53303;47.476;8.084;2023-10-31T07:59:37;94379.88;;;19.61;52.12
66486;BME280;53303;47.476;8.084;2023-10-31T08:02:02;94398.41;;;19.66;51.98
66486;BME280;53303;47.476;8.084;2023-10-31T08:04:28;94394.13;;;19.65;51.60
66486;BME280;53303;47.476;8.084;2023-10-31T08:06:55;94400.19;;;19.64;51.47
66486;BME280;53303;47.476;8.084;2023-10-31T08:09:21;94390.63;;;19.65;51.32
66486;BME280;53303;47.476;8.084;2023-10-31T08:11:46;94404.47;;;19.65;51.19
66486;BME280;53303;47.476;8.084;2023-10-31T08:14:14;94405.00;;;19.63;50.97
66486;BME280;53303;47.476;8.084;2023-10-31T08:16:41;94402.97;;;19.64;50.89
66486;BME280;53303;47.476;8.084;2023-10-31T08:19:09;94404.56;;;19.59;50.50
66486;BME280;53303;47.476;8.084;2023-10-31T08:21:34;94402.84;;;19.56;50.41
66486;BME280;53303;47.476;8.084;2023-10-31T08:24:04;94405.41;;;19.54;50.16
66486;BME280;53303;47.476;8.084;2023-10-31T08:26:32;94415.63;;;19.59;49.93
66486;BME280;53303;47.476;8.084;2023-10-31T08:28:58;94412.84;;;19.59;49.97
66486;BME280;53303;47.476;8.084;2023-10-31T08:31:24;94414.88;;;19.58;49.82
66486;BME280;53303;47.476;8.084;2023-10-31T08:33:49;94408.91;;;19.54;49.70
66486;BME280;53303;47.476;8.084;2023-10-31T08:36:17;94401.13;;;19.53;49.67
66486;BME280;53303;47.476;8.084;2023-10-31T08:38:43;94404.09;;;19.55;49.52
66486;BME280;53303;47.476;8.084;2023-10-31T08:41:08;94406.13;;;19.54;49.49
66486;BME280;53303;47.476;8.084;2023-10-31T08:43:33;94400.47;;;19.47;49.45
66486;BME280;53303;47.476;8.084;2023-10-31T08:46:02;94417.00;;;19.52;49.51
66486;BME280;53303;47.476;8.084;2023-10-31T08:48:30;94407.72;;;19.50;49.63
66486;BME280;53303;47.476;8.084;2023-10-31T08:50:55;94408.53;;;19.45;49.45
66486;BME280;53303;47.476;8.084;2023-10-31T08:53:21;94413.75;;;19.48;49.60
66486;BME280;53303;47.476;8.084;2023-10-31T08:55:47;94414.84;;;19.45;49.62
66486;BME280;53303;47.476;8.084;2023-10-31T08:58:13;94404.28;;;19.44;49.78
66486;BME280;53303;47.476;8.084;2023-10-31T09:00:39;94408.31;;;19.43;49.57
66486;BME280;53303;47.476;8.084;2023-10-31T09:03:06;94416.09;;;19.44;50.05
66486;BME280;53303;47.476;8.084;2023-10-31T09:05:32;94417.09;;;19.47;50.09
66486;BME280;53303;47.476;8.084;2023-10-31T09:07:57;94415.16;;;19.42;50.26
66486;BME280;53303;47.476;8.084;2023-10-31T09:10:22;94415.38;;;19.44;50.13
66486;BME280;53303;47.476;8.084;2023-10-31T09:12:50;94413.66;;;19.40;50.37
66486;BME280;53303;47.476;8.084;2023-10-31T09:15:21;94411.84;;;19.43;50.20
66486;BME280;53303;47.476;8.084;2023-10-31T09:17:47;94403.88;;;19.39;50.57
66486;BME280;53303;47.476;8.084;2023-10-31T09:20:13;94405.13;;;19.38;50.60
66486;BME280;53303;47.476;8.084;2023-10-31T09:22:38;94414.84;;;19.45;50.65
66486;BME280;53303;47.476;8.084;2023-10-31T09:25:04;94409.63;;;19.42;50.66
66486;BME280;53303;47.476;8.084;2023-10-31T09:27:29;94411.09;;;19.43;50.73
66486;BME280;53303;47.476;8.084;2023-10-31T09:29:55;94409.09;;;19.43;50.97
66486;BME280;53303;47.476;8.084;2023-10-31T09:32:20;94396.19;;;19.32;51.02
66486;BME280;53303;47.476;8.084;2023-10-31T09:34:46;94410.88;;;19.40;51.03
66486;BME280;53303;47.476;8.084;2023-10-31T09:37:11;94418.88;;;19.44;51.14
66486;BME280;53303;47.476;8.084;2023-10-31T09:39:36;94415.69;;;19.40;51.31
66486;BME280;53303;47.476;8.084;2023-10-31T09:42:05;94416.94;;;19.39;51.35
66486;BME280;53303;47.476;8.084;2023-10-31T09:44:30;94414.47;;;19.35;51.04
66486;BME280;53303;47.476;8.084;2023-10-31T09:46:56;94416.19;;;19.38;51.35
66486;BME280;53303;47.476;8.084;2023-10-31T09:49:26;94426.44;;;19.44;51.43
66486;BME280;53303;47.476;8.084;2023-10-31T09:51:54;94420.47;;;19.39;51.78
66486;BME280;53303;47.476;8.084;2023-10-31T09:54:20;94411.94;;;19.37;51.59
66486;BME280;53303;47.476;8.084;2023-10-31T09:56:46;94416.94;;;19.39;51.85
66486;BME280;53303;47.476;8.084;2023-10-31T09:59:14;94430.47;;;19.43;51.63
66486;BME280;53303;47.476;8.084;2023-10-31T10:01:39;94414.16;;;19.39;51.46
66486;BME280;53303;47.476;8.084;2023-10-31T10:04:05;94422.69;;;19.41;51.80
66486;BME280;53303;47.476;8.084;2023-10-31T10:06:31;94410.44;;;19.36;51.81
66486;BME280;53303;47.476;8.084;2023-10-31T10:08:59;94417.69;;;19.39;51.86
66486;BME280;53303;47.476;8.084;2023-10-31T10:11:24;94414.16;;;19.39;51.63
66486;BME280;53303;47.476;8.084;2023-10-31T10:13:53;94401.94;;;19.34;51.78
66486;BME280;53303;47.476;8.084;2023-10-31T10:16:41;94421.50;;;19.36;52.08
66486;BME280;53303;47.476;8.084;2023-10-31T10:19:24;94405.75;;;19.31;51.98
66486;BME280;53303;47.476;8.084;2023-10-31T10:21:55;94418.44;;;19.40;52.00
66486;BME280;53303;47.476;8.084;2023-10-31T10:24:22;94405.22;;;19.33;52.01
66486;BME280;53303;47.476;8.084;2023-10-31T10:26:50;94380.06;;;19.17;51.86
66486;BME280;53303;47.476;8.084;2023-10-31T10:29:16;94419.47;;;19.37;52.19
66486;BME280;53303;47.476;8.084;2023-10-31T10:31:42;94404.69;;;19.34;52.08
66486;BME280;53303;47.476;8.084;2023-10-31T10:34:12;94414.69;;;19.37;52.22
66486;BME280;53303;47.476;8.084;2023-10-31T10:36:38;94431.53;;;19.39;52.23
66486;BME280;53303;47.476;8.084;2023-10-31T10:39:06;94425.75;;;19.37;52.27
66486;BME280;53303;47.476;8.084;2023-10-31T10:41:34;94429.28;;;19.38;52.33
66486;BME280;53303;47.476;8.084;2023-10-31T10:44:06;94429.06;;;19.36;52.32
66486;BME280;53303;47.476;8.084;2023-10-31T10:46:36;94428.00;;;19.39;52.16
66486;BME280;53303;47.476;8.084;2023-10-31T10:49:06;94436.81;;;19.37;52.37
66486;BME280;53303;47.476;8.084;2023-10-31T10:51:58;94438.94;;;19.31;52.58
66486;BME280;53303;47.476;8.084;2023-10-31T10:57:37;94429.59;;;19.34;52.53
66486;BME280;53303;47.476;8.084;2023-10-31T11:00:04;94438.13;;;19.36;52.60
66486;BME280;53303;47.476;8.084;2023-10-31T11:02:35;94436.16;;;19.31;52.65
66486;BME280;53303;47.476;8.084;2023-10-31T11:05:05;94424.69;;;19.27;52.52
66486;BME280;53303;47.476;8.084;2023-10-31T11:07:36;94431.84;;;19.36;52.99
66486;BME280;53303;47.476;8.084;2023-10-31T11:10:02;94426.38;;;19.30;52.62
66486;BME280;53303;47.476;8.084;2023-10-31T11:12:34;94426.84;;;19.34;52.95
66486;BME280;53303;47.476;8.084;2023-10-31T11:15:03;94428.31;;;19.35;52.95
66486;BME280;53303;47.476;8.084;2023-10-31T11:17:40;94426.06;;;19.34;52.76
66486;BME280;53303;47.476;8.084;2023-10-31T11:20:10;94426.63;;;19.32;52.72
66486;BME280;53303;47.476;8.084;2023-10-31T11:22:41;94424.06;;;19.34;53.07
66486;BME280;53303;47.476;8.084;2023-10-31T11:25:09;94419.06;;;19.33;53.03
66486;BME280;53303;47.476;8.084;2023-10-31T11:27:35;94423.53;;;19.36;53.01
66486;BME280;53303;47.476;8.084;2023-10-31T11:30:27;94440.44;;;19.32;52.94
66486;BME280;53303;47.476;8.084;2023-10-31T11:32:54;94421.91;;;19.27;52.97
66486;BME280;53303;47.476;8.084;2023-10-31T11:35:21;94426.84;;;19.34;52.93
66486;BME280;53303;47.476;8.084;2023-10-31T11:38:01;94437.69;;;19.32;53.13
66486;BME280;53303;47.476;8.084;2023-10-31T11:40:29;94435.88;;;19.35;52.99
66486;BME280;53303;47.476;8.084;2023-10-31T11:42:58;94428.41;;;19.30;53.09
66486;BME280;53303;47.476;8.084;2023-10-31T11:45:33;94434.38;;;19.34;53.13
66486;BME280;53303;47.476;8.084;2023-10-31T11:47:59;94433.19;;;19.29;53.05
66486;BME280;53303;47.476;8.084;2023-10-31T11:50:25;94433.09;;;19.35;53.08
66486;BME280;53303;47.476;8.084;2023-10-31T11:53:12;94443.44;;;19.34;53.16
66486;BME280;53303;47.476;8.084;2023-10-31T11:55:47;94439.91;;;19.34;53.09
66486;BME280;53303;47.476;8.084;2023-10-31T11:58:20;94442.75;;;19.28;53.01
66486;BME280;53303;47.476;8.084;2023-10-31T12:00:50;94436.47;;;19.28;53.19
66486;BME280;53303;47.476;8.084;2023-10-31T12:03:17;94448.50;;;19.30;53.30
66486;BME280;53303;47.476;8.084;2023-10-31T12:06:03;94456.28;;;19.32;53.29
66486;BME280;53303;47.476;8.084;2023-10-31T12:08:32;94457.47;;;19.36;53.22
66486;BME280;53303;47.476;8.084;2023-10-31T12:11:12;94454.59;;;19.29;53.24
66486;BME280;53303;47.476;8.084;2023-10-31T12:13:51;94461.50;;;19.35;53.02
66486;BME280;53303;47.476;8.084;2023-10-31T12:16:17;94474.59;;;19.35;53.34
66486;BME280;53303;47.476;8.084;2023-10-31T12:18:43;94476.09;;;19.36;53.31
66486;BME280;53303;47.476;8.084;2023-10-31T12:21:08;94478.91;;;19.30;53.48
66486;BME280;53303;47.476;8.084;2023-10-31T12:23:36;94474.91;;;19.31;53.31
66486;BME280;53303;47.476;8.084;2023-10-31T12:26:01;94494.47;;;19.33;53.41
66486;BME280;53303;47.476;8.084;2023-10-31T12:28:27;94482.53;;;19.25;53.21
66486;BME280;53303;47.476;8.084;2023-10-31T12:30:54;94503.22;;;19.37;53.31
66486;BME280;53303;47.476;8.084;2023-10-31T12:33:21;94498.22;;;19.36;53.22
66486;BME280;53303;47.476;8.084;2023-10-31T12:35:51;94509.81;;;19.34;53.50
66486;BME280;53303;47.476;8.084;2023-10-31T12:38:17;94499.69;;;19.37;53.48
66486;BME280;53303;47.476;8.084;2023-10-31T12:40:44;94498.75;;;19.34;53.29
66486;BME280;53303;47.476;8.084;2023-10-31T12:43:10;94506.53;;;19.36;53.00
66486;BME280;53303;47.476;8.084;2023-10-31T12:45:38;94508.00;;;19.37;53.08
66486;BME280;53303;47.476;8.084;2023-10-31T12:48:08;94517.13;;;19.32;53.04
66486;BME280;53303;47.476;8.084;2023-10-31T12:50:35;94501.00;;;19.36;53.35
66486;BME280;53303;47.476;8.084;2023-10-31T12:53:03;94497.69;;;19.37;53.45
66486;BME280;53303;47.476;8.084;2023-10-31T12:55:30;94499.19;;;19.38;53.82
66486;BME280;53303;47.476;8.084;2023-10-31T12:58:00;94503.97;;;19.38;53.78
66486;BME280;53303;47.476;8.084;2023-10-31T13:00:35;94501.72;;;19.36;53.97
66486;BME280;53303;47.476;8.084;2023-10-31T13:03:09;94503.22;;;19.37;54.05